createdAt,value
2023-04-14T00:00:47.003Z,10.02
2023-04-14T00:05:52.556Z,14.57
2023-04-14T00:10:55.044Z,9.20
2023-04-14T00:15:57.546Z,11.35
2023-04-14T00:21:01.391Z,10.60
2023-04-14T00:26:04.813Z,13.27
2023-04-14T00:31:07.421Z,6.13
2023-04-14T00:36:10.032Z,13.98
2023-04-14T00:41:12.690Z,16.98
2023-04-14T00:46:17.535Z,18.33
2023-04-14T00:51:23.937Z,18.50
2023-04-14T00:56:31.594Z,14.93
2023-04-14T01:01:38.910Z,13.95
2023-04-14T01:06:41.490Z,15.38
2023-04-14T01:11:55.657Z,18.50
2023-04-14T01:17:27.927Z,14.43
2023-04-14T01:22:32.526Z,19.73
2023-04-14T01:28:05.620Z,27.10
2023-04-14T01:33:13.713Z,19.38
2023-04-14T01:38:25.878Z,20.63
2023-04-14T01:43:32.687Z,23.67
2023-04-14T01:48:36.424Z,18.00
2023-04-14T01:53:43.259Z,9.95
2023-04-14T01:58:48.846Z,12.95
2023-04-14T02:03:53.492Z,13.10
2023-04-14T02:09:05.932Z,8.10
2023-04-14T02:14:11.391Z,9.83
2023-04-14T02:19:14.386Z,10.45
2023-04-14T02:24:17.797Z,11.38
2023-04-14T02:29:23.868Z,10.07
2023-04-14T02:34:30.736Z,12.15
2023-04-14T02:39:43.849Z,12.50
2023-04-14T02:44:50.457Z,14.20
2023-04-14T02:49:56.696Z,14.43
2023-04-14T02:55:01.623Z,16.93
2023-04-14T03:00:06.458Z,11.75
2023-04-14T03:05:16.921Z,12.47
2023-04-14T03:10:36.318Z,13.07
2023-04-14T03:15:40.413Z,12.98
2023-04-14T03:20:46.077Z,8.47
2023-04-14T03:25:50.787Z,9.35
2023-04-14T03:31:01.700Z,9.30
2023-04-14T03:36:13.193Z,10.70
2023-04-14T03:41:19.943Z,12.80
2023-04-14T03:46:33.304Z,10.37
2023-04-14T03:51:39.273Z,13.18
2023-04-14T03:56:45.608Z,28.90
2023-04-14T04:01:50.168Z,33.08
2023-04-14T04:06:54.256Z,29.00
2023-04-14T04:12:00.388Z,31.37
2023-04-14T04:17:07.684Z,29.05
2023-04-14T04:22:14.820Z,22.77
2023-04-14T04:27:27.658Z,24.33
2023-04-14T04:32:42.225Z,25.73
2023-04-14T04:37:47.580Z,19.50
2023-04-14T04:42:52.534Z,20.58
2023-04-14T04:47:55.626Z,25.93
2023-04-14T04:52:58.734Z,27.20
2023-04-14T04:58:01.852Z,33.03
2023-04-14T05:03:04.610Z,28.80
2023-04-14T05:08:11.359Z,30.95
2023-04-14T05:13:14.922Z,30.67
2023-04-14T05:18:17.387Z,36.37
2023-04-14T05:23:19.818Z,34.83
2023-04-14T05:28:22.638Z,37.17
2023-04-14T05:33:25.306Z,50.72
2023-04-14T05:38:28.652Z,48.63
2023-04-14T05:43:31.485Z,33.20
2023-04-14T05:48:34.136Z,30.58
2023-04-14T05:53:36.760Z,28.70
2023-04-14T05:58:39.452Z,60.42
2023-04-14T06:03:45.174Z,46.67
2023-04-14T06:08:47.976Z,30.40
2023-04-14T06:13:50.592Z,24.48
2023-04-14T06:18:53.148Z,20.87
2023-04-14T06:23:55.823Z,21.52
2023-04-14T06:28:59.751Z,25.05
2023-04-14T06:34:02.377Z,20.70
2023-04-14T06:39:05.558Z,26.98
2023-04-14T06:44:08.136Z,30.10
2023-04-14T06:49:11.443Z,29.03
2023-04-14T06:54:14.264Z,36.33
2023-04-14T06:59:17.003Z,42.73
2023-04-14T07:04:20.135Z,34.63
2023-04-14T07:09:23.175Z,33.85
2023-04-14T07:14:25.721Z,37.23
2023-04-14T07:19:28.279Z,37.38
2023-04-14T07:24:30.979Z,26.57
2023-04-14T07:29:35.865Z,27.52
2023-04-14T07:34:39.939Z,32.72
2023-04-14T07:39:42.434Z,34.77
2023-04-14T07:44:46.398Z,40.78
2023-04-14T07:49:48.989Z,47.53
2023-04-14T07:54:56.519Z,51.83
2023-04-14T07:59:59.043Z,39.92
2023-04-14T08:05:01.666Z,47.37
2023-04-14T08:10:05.291Z,34.75
2023-04-14T08:15:08.413Z,32.03
2023-04-14T08:20:11.410Z,25.70
2023-04-14T08:25:14.966Z,27.05
2023-04-14T08:30:19.288Z,20.57
2023-04-14T08:35:35.173Z,17.20
2023-04-14T08:41:04.353Z,15.93
2023-04-14T08:46:09.789Z,12.43
2023-04-14T08:51:32.712Z,14.63
2023-04-14T08:56:43.308Z,15.23
2023-04-14T09:01:46.779Z,15.33
2023-04-14T09:06:49.465Z,16.73
2023-04-14T09:11:55.283Z,17.10
2023-04-14T09:17:00.392Z,9.45
2023-04-14T09:22:03.068Z,18.45
2023-04-14T09:27:08.905Z,15.90
2023-04-14T09:32:12.800Z,15.18
2023-04-14T09:37:15.448Z,17.77
2023-04-14T09:42:20.193Z,19.20
2023-04-14T09:47:25.081Z,30.65
2023-04-14T09:52:42.612Z,26.30
2023-04-14T09:57:51.299Z,25.77
2023-04-14T10:02:56.557Z,30.10
2023-04-14T10:08:04.836Z,24.20
2023-04-14T10:13:07.806Z,24.25
2023-04-14T10:18:10.780Z,20.47
2023-04-14T10:23:13.869Z,28.75
2023-04-14T10:28:17.122Z,22.53
2023-04-14T10:33:20.306Z,14.07
2023-04-14T10:38:23.178Z,12.27
2023-04-14T10:43:32.493Z,11.57
2023-04-14T10:48:38.840Z,16.02
2023-04-14T10:53:55.857Z,14.27
2023-04-14T10:58:59.515Z,17.60
2023-04-14T11:04:19.301Z,20.83
2023-04-14T11:09:32.042Z,13.90
2023-04-14T11:15:02.132Z,10.43
2023-04-14T11:20:17.895Z,12.57
2023-04-14T11:25:24.539Z,18.35
2023-04-14T11:30:28.296Z,17.73
2023-04-14T11:35:31.658Z,19.13
2023-04-14T11:40:37.033Z,17.40
2023-04-14T11:45:43.203Z,15.53
2023-04-14T11:50:48.689Z,9.75
2023-04-14T11:55:52.667Z,12.38
2023-04-14T12:01:00.027Z,11.07
2023-04-14T12:06:03.760Z,15.63
2023-04-14T12:11:16.826Z,10.60
2023-04-14T12:16:19.776Z,6.93
2023-04-14T12:21:22.377Z,9.35
2023-04-14T12:26:26.376Z,11.33
2023-04-14T12:31:32.477Z,7.55
2023-04-14T12:36:49.840Z,6.97
2023-04-14T12:41:53.929Z,9.43
2023-04-14T12:46:56.471Z,11.30
2023-04-14T12:51:59.592Z,13.70
2023-04-14T12:57:03.603Z,27.23
2023-04-14T13:02:07.966Z,7.50
2023-04-14T13:07:10.713Z,16.25
2023-04-14T13:12:13.504Z,14.48
2023-04-14T13:17:16.124Z,10.50
2023-04-14T13:22:18.945Z,7.03
2023-04-14T13:27:22.584Z,8.70
2023-04-14T13:32:25.167Z,7.25
2023-04-14T13:42:57.037Z,5.70
2023-04-14T13:48:04.227Z,8.00
2023-04-14T13:53:11.382Z,5.33
2023-04-14T13:58:17.232Z,6.70
2023-04-14T14:03:23.310Z,9.95
2023-04-14T14:08:26.346Z,9.13
2023-04-14T14:13:29.418Z,9.57
2023-04-14T14:18:32.634Z,8.63
